Aeroporto :
LOGIN :

Iscrizione | Disclaimer

   EN    FR    IT 

 










Sommario :    VFR   VFR Marginale   IFR   IFR Intensivo   IFR Molto Intensivo
Visibilità : 
Base nubi : 
>= 8 km
>= 3000ft
5 / 8 km
1000 / 3000 ft
1500m / 5 km
500 / 1000 ft
800 / 1500m
200 / 500 ft
< 800m
< 200 ft
Simboli :   Temporali  Nebbia  Neve Forte  Precipitazioni Forti  Vento > 20 kt
SIGMETs :   Varie  Temporali  Ghiacco  Turbolenza  Onda orograficha  Ceneri Vulcaniche






- Altitudine del aeroporto : 40 ft
- Codice IATA : RMI


LIPR - Federico Fellini Int. Rimini

ULTIMO METAR :
  • 241420Z 01003KT 330V040 3500 BR NSC 06/03 Q1027

METARs OBSOLETI :
  • 241350Z 02004KT 340V040 4000 BR SCT010 06/03 Q1027
  • 241320Z 36005KT 4000 BR SCT010 06/03 Q1027
  • 241250Z 35004KT 320V030 3500 BR BKN010 06/03 Q1027
  • 241220Z 35004KT 310V030 3000 BR BKN010 06/03 Q1028
  • 241150Z VRB02KT 3000 BR BKN010 06/03 Q1028

TAF TAF LIPR
Valido dal 24 a 15 ore il 25 a 00 ore UTC


241400Z 2415/2424 VRB05KT 3000 BR BKN010
TEMPO 2421/2424 SHRA



MetMap, La meteo Aeronautica in un colpo d'occhio ! - Copyright ORBIFLY Dicembre 2007 - Disclaimer

ORBIFLY MET'MAP TEAM :

Programmazione e sviluppo : Alexandra Zaïnal
Concezione : Baudouin d'Aumeries
Aiuto per la programmazione : Marc-Olivier Méhu
Supporto tecnico e logistico : Manuel Goepfert
Aiuto per la traduzione : Arnaldo La Scala

Contatto : metmap@orbifly.com




FONTI E CREDITI :

   NOAA